Zachary, Louisiana
Current Conditions -  °F | °C
As of 5:53 PM on Sunday 28 Dec 2014 (Local Time) from KBTR Reporting Station
Light Rain Light Rain  
Wind Chill: 53°   Ceiling: 600
Heat Index: 53°   Visibility: 5mi
Dew Point: 49°   Wind: 3mph
Humidity: 86%   Direction: 360°N
Pressure: 30.09"   Gusts: NA
Location:  30.65°N, 91.16°W
Report Text: KBTR 282353Z 36003KT 5SM -RA BR OVC006 12/09 A3009 RMK AO2 RAE04B26 SLP188 P0000 60000 T01170094 10150 20117 53002
Loading
Personal Weather Stations






























Interactive Weather Map New forecast layout! Learn more

10-Day Weather Forecast

Advertisements
Track Severe Weather on mobile